Time;durP1;ratioP1;P1;durP2;ratioP2;P2;SDS_P1;SDS_P2;PMS_P1;PMS_P2;Temp;Humidity;BMP_temperature;BMP_pressure;BME280_temperature;BME280_humidity;BME280_pressure;Samples;Min_cycle;Max_cycle;Signal;HPM_P1;HPM_P2
2023/08/28 00:03:43;;;;;;;8.43;6.97;;;;;;;;;;10375635;28;20030;-60
2023/08/28 00:08:43;;;;;;;9.70;7.60;;;;;;;;;;10375875;28;20022;-60
2023/08/28 00:13:44;;;;;;;9.63;8.07;;;;;;;;;;10375358;28;20026;-59
2023/08/28 00:18:44;;;;;;;10.23;7.67;;;;;;;;;;10375010;28;20215;-59
2023/08/28 00:23:44;;;;;;;8.10;7.23;;;;;;;;;;10375412;28;20770;-59
2023/08/28 00:28:45;;;;;;;10.07;7.30;;;;;;;;;;10374681;28;20018;-59
2023/08/28 00:33:45;;;;;;;10.40;7.80;;;;;;;;;;10374571;28;20131;-59
2023/08/28 00:38:46;;;;;;;7.87;7.13;;;;;;;;;;10374030;28;20129;-59
2023/08/28 00:43:46;;;;;;;8.68;7.25;;;;;;;;;;10374156;28;20527;-59
2023/08/28 00:48:46;;;;;;;9.03;7.13;;;;;;;;;;10373665;28;20060;-59
2023/08/28 00:53:47;;;;;;;9.10;7.40;;;;;;;;;;10372518;28;20026;-59
2023/08/28 00:58:47;;;;;;;9.57;7.03;;;;;;;;;;10373520;28;20034;-59
2023/08/28 01:03:47;;;;;;;7.90;6.63;;;;;;;;;;10373471;28;20103;-59
2023/08/28 01:09:13;;;;;;;7.53;6.73;;;;;;;;;;10373202;28;20235;-59
2023/08/28 01:14:25;;;;;;;7.13;6.43;;;;;;;;;;10373053;28;20021;-59
2023/08/28 01:19:46;;;;;;;8.45;7.03;;;;;;;;;;10373249;28;20056;-59
2023/08/28 01:24:50;;;;;;;8.10;7.25;;;;;;;;;;10373084;28;20378;-59
2023/08/28 01:30:11;;;;;;;7.78;6.65;;;;;;;;;;10371757;28;20109;-60
2023/08/28 01:35:30;;;;;;;7.60;6.90;;;;;;;;;;10372218;28;20054;-60
2023/08/28 01:40:38;;;;;;;9.75;6.85;;;;;;;;;;10370763;28;20030;-59
2023/08/28 01:45:38;;;;;;;8.15;6.65;;;;;;;;;;10371653;28;20026;-59
2023/08/28 01:50:39;;;;;;;9.82;6.70;;;;;;;;;;10371537;28;20026;-60
2023/08/28 01:55:45;;;;;;;9.57;6.80;;;;;;;;;;10371658;28;20072;-59
2023/08/28 02:00:45;;;;;;;7.05;6.28;;;;;;;;;;10370620;28;20057;-59
2023/08/28 02:05:45;;;;;;;7.37;6.60;;;;;;;;;;10370942;28;20461;-59
2023/08/28 02:10:46;;;;;;;7.03;6.33;;;;;;;;;;10371356;28;20050;-59
2023/08/28 02:15:46;;;;;;;7.07;6.37;;;;;;;;;;10370490;28;20119;-59
2023/08/28 02:20:48;;;;;;;9.47;6.63;;;;;;;;;;10370569;28;20026;-59
2023/08/28 02:25:49;;;;;;;7.13;6.43;;;;;;;;;;10369744;28;20490;-59
2023/08/28 02:30:49;;;;;;;7.25;6.47;;;;;;;;;;10370610;28;20034;-60
2023/08/28 02:35:49;;;;;;;11.83;7.10;;;;;;;;;;10369695;28;20054;-59
2023/08/28 02:40:50;;;;;;;6.67;6.07;;;;;;;;;;10370160;28;20552;-59
2023/08/28 02:45:50;;;;;;;7.37;6.57;;;;;;;;;;10369455;28;20037;-60
2023/08/28 02:50:51;;;;;;;9.50;6.37;;;;;;;;;;10369450;28;20022;-60
2023/08/28 02:56:24;;;;;;;8.45;6.32;;;;;;;;;;10368967;28;20076;-60
2023/08/28 03:01:25;;;;;;;10.35;6.22;;;;;;;;;;10369651;28;20099;-59
2023/08/28 03:06:25;;;;;;;8.37;7.10;;;;;;;;;;10369116;28;20076;-59
2023/08/28 03:23:02;;;;;;;8.07;6.68;;;;;;;;;;10569953;27;20965;-62
2023/08/28 03:28:07;;;;;;;9.77;6.53;;;;;;;;;;10527905;28;20033;-61
2023/08/28 03:33:08;;;;;;;8.52;6.75;;;;;;;;;;10527560;28;20498;-61
2023/08/28 03:38:08;;;;;;;7.82;6.03;;;;;;;;;;10527559;28;20032;-61
2023/08/28 03:43:09;;;;;;;6.85;6.15;;;;;;;;;;10527101;28;20040;-62
2023/08/28 03:48:09;;;;;;;6.78;6.18;;;;;;;;;;10527047;28;20033;-61
2023/08/28 03:53:10;;;;;;;8.32;6.47;;;;;;;;;;10526971;28;20213;-61
2023/08/28 03:58:11;;;;;;;9.05;6.40;;;;;;;;;;10526668;28;20032;-61
2023/08/28 04:03:11;;;;;;;8.23;6.57;;;;;;;;;;10526570;28;20066;-62
2023/08/28 04:08:12;;;;;;;8.25;5.78;;;;;;;;;;10526344;28;20036;-62
2023/08/28 04:13:12;;;;;;;6.97;6.00;;;;;;;;;;10525895;28;20035;-61
2023/08/28 04:18:13;;;;;;;7.55;6.65;;;;;;;;;;10525728;28;20090;-61
2023/08/28 04:23:13;;;;;;;7.88;6.18;;;;;;;;;;10501693;28;20098;-61
2023/08/28 04:28:15;;;;;;;8.13;6.00;;;;;;;;;;10497632;28;20028;-61
2023/08/28 04:33:16;;;;;;;7.97;6.53;;;;;;;;;;10497363;28;20025;-61
2023/08/28 04:38:17;;;;;;;7.07;6.35;;;;;;;;;;10497301;28;20036;-61
2023/08/28 04:43:17;;;;;;;7.50;6.35;;;;;;;;;;10497016;28;20044;-61
2023/08/28 04:48:18;;;;;;;8.82;6.00;;;;;;;;;;10496834;28;20056;-61
2023/08/28 04:53:19;;;;;;;8.82;5.80;;;;;;;;;;10496955;28;20183;-62
2023/08/28 04:58:20;;;;;;;7.28;6.43;;;;;;;;;;10496524;28;20086;-61
2023/08/28 05:03:22;;;;;;;7.72;6.47;;;;;;;;;;10496186;28;20036;-62
2023/08/28 05:08:22;;;;;;;7.10;5.78;;;;;;;;;;10496179;28;20063;-62
2023/08/28 05:13:23;;;;;;;5.60;5.03;;;;;;;;;;10495767;28;20082;-61
2023/08/28 05:18:23;;;;;;;7.93;6.63;;;;;;;;;;10495532;28;20044;-61
2023/08/28 05:23:27;;;;;;;7.60;6.80;;;;;;;;;;10495384;28;20102;-61
2023/08/28 05:28:27;;;;;;;9.45;6.93;;;;;;;;;;10495049;28;20025;-61
2023/08/28 05:33:28;;;;;;;8.50;7.38;;;;;;;;;;10494133;28;20029;-61
2023/08/28 05:38:30;;;;;;;7.85;7.15;;;;;;;;;;10494889;28;20578;-61
2023/08/28 05:43:30;;;;;;;12.57;7.95;;;;;;;;;;10494323;28;20025;-62
2023/08/28 05:48:31;;;;;;;13.35;8.35;;;;;;;;;;10494269;28;20383;-62
2023/08/28 05:53:32;;;;;;;9.20;8.00;;;;;;;;;;10494362;28;20375;-61
2023/08/28 05:58:33;;;;;;;13.63;8.93;;;;;;;;;;10493860;28;20396;-60
2023/08/28 06:03:33;;;;;;;13.70;9.05;;;;;;;;;;10493686;28;20024;-60
2023/08/28 06:08:34;;;;;;;13.23;8.27;;;;;;;;;;10493471;28;20039;-63
2023/08/28 06:13:35;;;;;;;10.63;8.65;;;;;;;;;;10493654;28;20024;-61
2023/08/28 06:18:35;;;;;;;10.48;8.73;;;;;;;;;;10492928;28;20040;-61
2023/08/28 06:23:36;;;;;;;10.77;8.57;;;;;;;;;;10493371;28;20415;-61
2023/08/28 06:28:36;;;;;;;12.02;8.13;;;;;;;;;;10492751;28;20384;-60
2023/08/28 06:33:37;;;;;;;14.23;8.70;;;;;;;;;;10492575;28;20031;-60
2023/08/28 06:38:37;;;;;;;13.48;9.20;;;;;;;;;;10492521;28;20036;-61
2023/08/28 06:43:38;;;;;;;11.80;9.27;;;;;;;;;;10492157;28;20028;-61
2023/08/28 06:48:39;;;;;;;12.90;8.93;;;;;;;;;;10492440;28;20456;-61
2023/08/28 06:53:39;;;;;;;13.60;9.35;;;;;;;;;;10492066;28;20455;-61
2023/08/28 06:58:40;;;;;;;12.23;8.45;;;;;;;;;;10492131;28;20392;-61
2023/08/28 07:03:40;;;;;;;12.20;8.55;;;;;;;;;;10490785;28;20021;-61
2023/08/28 07:08:41;;;;;;;13.98;8.25;;;;;;;;;;10492037;28;20510;-60
2023/08/28 07:13:41;;;;;;;13.48;9.25;;;;;;;;;;10491717;28;20025;-60
2023/08/28 07:18:43;;;;;;;9.73;8.30;;;;;;;;;;10491324;28;20048;-60
2023/08/28 07:23:44;;;;;;;11.90;8.25;;;;;;;;;;10491693;28;20116;-60
2023/08/28 07:28:46;;;;;;;10.73;9.00;;;;;;;;;;10489728;28;20029;-60
2023/08/28 07:33:47;;;;;;;15.70;9.25;;;;;;;;;;10491297;28;20028;-60
2023/08/28 07:38:47;;;;;;;12.98;8.43;;;;;;;;;;10491099;28;20102;-60
2023/08/28 07:43:48;;;;;;;11.25;8.68;;;;;;;;;;10490881;28;20029;-61
2023/08/28 07:48:49;;;;;;;14.25;8.77;;;;;;;;;;10490873;28;20025;-61
2023/08/28 07:53:49;;;;;;;11.68;8.20;;;;;;;;;;10490994;28;20029;-61
2023/08/28 07:58:51;;;;;;;12.07;8.75;;;;;;;;;;10497505;28;20512;-61
2023/08/28 08:03:52;;;;;;;12.00;8.45;;;;;;;;;;10498793;28;20028;-60
2023/08/28 08:08:52;;;;;;;11.70;8.38;;;;;;;;;;10498066;28;20025;-60
2023/08/28 08:13:53;;;;;;;16.27;8.60;;;;;;;;;;10497971;28;20170;-61
2023/08/28 08:18:54;;;;;;;9.27;8.35;;;;;;;;;;10498000;28;20049;-63
2023/08/28 08:23:55;;;;;;;9.48;8.15;;;;;;;;;;10497888;28;20032;-60
2023/08/28 08:28:56;;;;;;;9.60;7.93;;;;;;;;;;10497558;28;20139;-60
2023/08/28 08:33:56;;;;;;;11.55;7.85;;;;;;;;;;10497288;28;20035;-60
2023/08/28 08:38:57;;;;;;;14.35;8.43;;;;;;;;;;10497060;28;20079;-61
2023/08/28 08:43:57;;;;;;;9.40;8.35;;;;;;;;;;10496695;28;20024;-60
2023/08/28 08:49:00;;;;;;;9.68;8.68;;;;;;;;;;10495367;28;20356;-61
2023/08/28 08:54:19;;;;;;;12.23;8.40;;;;;;;;;;10496563;28;20040;-60
2023/08/28 08:59:21;;;;;;;11.73;8.18;;;;;;;;;;10496197;28;20032;-60
2023/08/28 09:04:22;;;;;;;8.07;7.30;;;;;;;;;;10496391;28;20053;-61
2023/08/28 09:09:23;;;;;;;9.70;8.30;;;;;;;;;;10496067;28;20050;-61
2023/08/28 09:14:23;;;;;;;9.90;8.32;;;;;;;;;;10494597;28;20024;-61
2023/08/28 09:19:25;;;;;;;10.63;8.57;;;;;;;;;;10495259;28;20070;-62
2023/08/28 09:24:26;;;;;;;10.45;8.30;;;;;;;;;;10495342;28;20024;-61
2023/08/28 09:29:27;;;;;;;13.30;7.78;;;;;;;;;;10494728;28;20057;-61
2023/08/28 09:34:40;;;;;;;9.57;7.97;;;;;;;;;;10494995;28;20074;-60
2023/08/28 09:39:53;;;;;;;9.57;7.57;;;;;;;;;;10495052;28;20517;-60
2023/08/28 09:44:54;;;;;;;12.38;8.18;;;;;;;;;;10494601;28;20024;-61
2023/08/28 09:49:57;;;;;;;8.82;7.88;;;;;;;;;;10494508;28;20029;-60
2023/08/28 09:55:04;;;;;;;10.63;8.45;;;;;;;;;;10494154;28;20031;-62
2023/08/28 10:00:06;;;;;;;10.35;7.85;;;;;;;;;;10493683;28;20024;-60
2023/08/28 10:05:08;;;;;;;11.57;8.23;;;;;;;;;;10493648;28;20375;-61
2023/08/28 10:10:15;;;;;;;10.43;7.40;;;;;;;;;;10493208;28;20028;-60
2023/08/28 10:15:17;;;;;;;11.30;7.50;;;;;;;;;;10492029;28;20057;-64
2023/08/28 10:20:20;;;;;;;11.25;7.75;;;;;;;;;;10492266;28;20067;-62
2023/08/28 10:25:22;;;;;;;10.10;7.53;;;;;;;;;;10492054;28;20040;-60
2023/08/28 10:30:24;;;;;;;8.48;7.00;;;;;;;;;;10491384;28;20020;-61
2023/08/28 10:35:25;;;;;;;11.48;7.20;;;;;;;;;;10493459;28;20059;-61
2023/08/28 10:40:26;;;;;;;10.15;7.00;;;;;;;;;;10492577;28;20054;-60
2023/08/28 10:45:27;;;;;;;8.73;6.65;;;;;;;;;;10492394;28;20085;-61
2023/08/28 10:50:38;;;;;;;11.18;6.80;;;;;;;;;;10491080;28;20055;-61
2023/08/28 10:55:38;;;;;;;11.15;6.88;;;;;;;;;;10491260;28;20032;-61
2023/08/28 11:00:39;;;;;;;7.78;6.97;;;;;;;;;;10492724;28;20020;-61
2023/08/28 11:05:40;;;;;;;10.10;7.18;;;;;;;;;;10492136;28;20024;-62
2023/08/28 11:10:45;;;;;;;13.25;7.28;;;;;;;;;;10492033;28;20130;-60
2023/08/28 11:15:45;;;;;;;12.60;7.40;;;;;;;;;;10491647;28;20029;-60
2023/08/28 11:20:50;;;;;;;10.23;6.45;;;;;;;;;;10491577;28;20040;-61
2023/08/28 11:25:52;;;;;;;7.63;5.90;;;;;;;;;;10491669;28;20029;-61
2023/08/28 11:30:58;;;;;;;11.63;6.40;;;;;;;;;;10494340;28;20032;-61
2023/08/28 11:36:03;;;;;;;8.82;6.60;;;;;;;;;;10499654;28;20270;-60
2023/08/28 11:41:08;;;;;;;7.05;5.45;;;;;;;;;;10499255;28;20025;-63
2023/08/28 11:46:11;;;;;;;10.30;5.32;;;;;;;;;;10499024;28;20032;-61
2023/08/28 11:51:12;;;;;;;8.25;5.28;;;;;;;;;;10497185;28;20036;-62
2023/08/28 11:56:13;;;;;;;11.98;4.78;;;;;;;;;;10498188;28;20024;-62
2023/08/28 12:01:15;;;;;;;43.45;6.90;;;;;;;;;;10497162;28;20024;-62
2023/08/28 12:06:20;;;;;;;18.13;4.25;;;;;;;;;;10496877;28;20024;-61
2023/08/28 12:11:21;;;;;;;13.52;4.05;;;;;;;;;;10496980;28;20095;-62
2023/08/28 12:16:24;;;;;;;12.43;3.45;;;;;;;;;;10493963;28;20028;-63
2023/08/28 12:21:36;;;;;;;12.50;3.20;;;;;;;;;;10496248;28;20067;-63
2023/08/28 12:26:37;;;;;;;23.33;4.00;;;;;;;;;;10496557;28;20142;-62
2023/08/28 12:31:37;;;;;;;15.38;3.63;;;;;;;;;;10496235;28;20104;-63
2023/08/28 12:36:47;;;;;;;7.65;3.17;;;;;;;;;;10496470;28;20033;-65
2023/08/28 12:41:53;;;;;;;6.75;3.25;;;;;;;;;;10495412;28;20070;-64
2023/08/28 12:46:55;;;;;;;9.07;2.95;;;;;;;;;;10495778;28;20127;-65
2023/08/28 12:51:59;;;;;;;10.43;3.05;;;;;;;;;;10495648;28;20028;-64
2023/08/28 12:57:00;;;;;;;7.18;2.90;;;;;;;;;;10495868;28;20415;-64
2023/08/28 13:02:01;;;;;;;25.15;3.97;;;;;;;;;;10495794;28;20032;-65
2023/08/28 13:07:01;;;;;;;11.73;3.22;;;;;;;;;;10495619;28;20076;-63
2023/08/28 13:12:02;;;;;;;10.73;2.97;;;;;;;;;;10494251;28;20036;-63
2023/08/28 13:17:04;;;;;;;9.90;2.95;;;;;;;;;;10494245;28;20640;-63
2023/08/28 13:22:05;;;;;;;14.98;2.50;;;;;;;;;;10495068;28;20105;-62
2023/08/28 13:27:06;;;;;;;3.80;2.75;;;;;;;;;;10495034;28;20086;-63
2023/08/28 13:32:07;;;;;;;5.45;2.55;;;;;;;;;;10494589;28;20041;-62
2023/08/28 13:37:07;;;;;;;7.95;2.60;;;;;;;;;;10494716;28;20036;-63
2023/08/28 13:42:08;;;;;;;7.47;2.83;;;;;;;;;;10494334;28;20048;-63
2023/08/28 13:47:08;;;;;;;5.63;2.33;;;;;;;;;;10494130;28;20031;-62
2023/08/28 13:52:09;;;;;;;6.82;2.50;;;;;;;;;;10493063;28;20471;-63
2023/08/28 13:57:11;;;;;;;5.18;2.42;;;;;;;;;;10493421;28;20082;-62
2023/08/28 14:02:12;;;;;;;8.43;2.45;;;;;;;;;;10491986;28;20375;-63
2023/08/28 14:07:13;;;;;;;5.63;2.72;;;;;;;;;;10453790;28;20041;-62
2023/08/28 14:12:14;;;;;;;4.93;2.47;;;;;;;;;;10449477;28;20037;-62
2023/08/28 14:17:15;;;;;;;4.93;2.67;;;;;;;;;;10450705;28;20254;-62
2023/08/28 14:22:15;;;;;;;8.45;2.72;;;;;;;;;;10448157;28;20044;-63
2023/08/28 14:27:16;;;;;;;7.13;2.83;;;;;;;;;;10450244;28;20021;-63
2023/08/28 14:32:16;;;;;;;4.75;2.83;;;;;;;;;;10449938;28;20044;-64
2023/08/28 14:37:17;;;;;;;10.25;2.30;;;;;;;;;;10450908;28;20071;-62
2023/08/28 14:42:18;;;;;;;4.97;2.75;;;;;;;;;;10450895;28;20095;-62
2023/08/28 14:47:18;;;;;;;7.60;2.85;;;;;;;;;;10450837;28;20029;-62
2023/08/28 14:52:19;;;;;;;6.90;2.70;;;;;;;;;;10450425;28;20032;-63
2023/08/28 14:57:20;;;;;;;7.07;2.95;;;;;;;;;;10450495;28;20025;-62
2023/08/28 15:02:21;;;;;;;22.17;4.10;;;;;;;;;;10450150;28;20047;-63
2023/08/28 15:07:22;;;;;;;26.42;3.72;;;;;;;;;;10449772;28;20021;-63
2023/08/28 15:12:23;;;;;;;21.98;3.85;;;;;;;;;;10423325;28;20041;-62
2023/08/28 15:17:24;;;;;;;11.15;3.50;;;;;;;;;;10408345;28;20079;-62
2023/08/28 15:22:24;;;;;;;16.40;3.95;;;;;;;;;;10408456;28;20111;-62
2023/08/28 15:27:25;;;;;;;17.75;4.22;;;;;;;;;;10408665;28;20036;-63
2023/08/28 15:32:26;;;;;;;6.63;3.85;;;;;;;;;;10408304;28;20222;-63
2023/08/28 15:37:26;;;;;;;5.55;2.85;;;;;;;;;;10408363;28;20025;-62
2023/08/28 15:42:27;;;;;;;12.88;3.00;;;;;;;;;;10408061;28;20084;-62
2023/08/28 15:47:27;;;;;;;9.20;2.42;;;;;;;;;;10408081;28;20025;-62
2023/08/28 15:52:28;;;;;;;9.35;2.30;;;;;;;;;;10407769;28;20318;-62
2023/08/28 15:57:29;;;;;;;6.55;2.55;;;;;;;;;;10407766;28;20032;-62
2023/08/28 16:02:29;;;;;;;11.57;2.58;;;;;;;;;;10407843;28;20477;-62
2023/08/28 16:07:30;;;;;;;8.65;2.20;;;;;;;;;;10407691;28;20034;-63
2023/08/28 16:12:31;;;;;;;4.72;2.20;;;;;;;;;;10406977;28;20025;-62
2023/08/28 16:17:32;;;;;;;4.43;2.22;;;;;;;;;;10409029;28;20034;-62
2023/08/28 16:22:32;;;;;;;6.07;2.40;;;;;;;;;;10415060;28;20044;-62
2023/08/28 16:27:34;;;;;;;4.65;2.33;;;;;;;;;;10415320;28;20099;-63
2023/08/28 16:32:34;;;;;;;6.00;2.22;;;;;;;;;;10414732;28;20029;-62
2023/08/28 16:37:35;;;;;;;5.20;2.00;;;;;;;;;;10414559;28;20029;-63
2023/08/28 16:42:35;;;;;;;4.70;1.40;;;;;;;;;;10413997;28;20423;-63
2023/08/28 16:47:36;;;;;;;3.10;1.63;;;;;;;;;;10414075;28;20029;-63
2023/08/28 16:52:37;;;;;;;3.97;1.80;;;;;;;;;;10414044;28;20029;-63
2023/08/28 16:57:38;;;;;;;4.82;2.00;;;;;;;;;;10413922;28;20025;-64
2023/08/28 17:02:39;;;;;;;4.43;2.00;;;;;;;;;;10413671;28;20041;-62
2023/08/28 17:07:39;;;;;;;3.60;1.70;;;;;;;;;;10413509;28;20480;-63
2023/08/28 17:12:40;;;;;;;2.03;1.30;;;;;;;;;;10413116;28;20025;-63
2023/08/28 17:17:41;;;;;;;3.75;1.60;;;;;;;;;;10413182;28;20029;-62
2023/08/28 17:22:41;;;;;;;2.92;1.50;;;;;;;;;;10411341;28;20064;-63
2023/08/28 17:27:42;;;;;;;4.47;1.88;;;;;;;;;;10411519;28;20026;-63
2023/08/28 17:32:53;;;;;;;2.85;1.60;;;;;;;;;;10412325;28;20056;-63
2023/08/28 17:37:54;;;;;;;4.15;1.70;;;;;;;;;;10412544;28;20021;-62
2023/08/28 17:42:54;;;;;;;2.58;1.40;;;;;;;;;;10412120;28;20033;-63
2023/08/28 17:47:55;;;;;;;2.45;1.38;;;;;;;;;;10429036;28;20033;-63
2023/08/28 17:52:56;;;;;;;1.48;1.08;;;;;;;;;;10453102;28;20029;-62
2023/08/28 17:57:56;;;;;;;2.72;1.33;;;;;;;;;;10453178;28;20392;-62
2023/08/28 18:02:57;;;;;;;6.95;1.67;;;;;;;;;;10452599;28;20059;-62
2023/08/28 18:08:00;;;;;;;2.53;1.40;;;;;;;;;;10452407;28;20029;-62
2023/08/28 18:13:00;;;;;;;8.43;1.38;;;;;;;;;;10451925;28;20035;-62
2023/08/28 18:18:01;;;;;;;4.85;1.58;;;;;;;;;;10451903;28;20020;-62
2023/08/28 18:23:02;;;;;;;3.80;1.38;;;;;;;;;;10451592;28;20047;-62
2023/08/28 18:28:03;;;;;;;3.78;1.30;;;;;;;;;;10452275;28;20147;-63
2023/08/28 18:33:03;;;;;;;3.50;1.50;;;;;;;;;;10451995;28;20029;-64
2023/08/28 18:38:04;;;;;;;2.17;1.38;;;;;;;;;;10451205;28;20433;-63
2023/08/28 18:43:05;;;;;;;2.90;1.23;;;;;;;;;;10450591;28;20037;-62
2023/08/28 18:48:05;;;;;;;4.00;1.42;;;;;;;;;;10450930;28;20043;-63
2023/08/28 18:53:08;;;;;;;2.88;1.45;;;;;;;;;;10450701;28;20035;-63
2023/08/28 18:58:08;;;;;;;3.22;1.30;;;;;;;;;;10450685;28;20021;-63
2023/08/28 19:03:09;;;;;;;1.33;1.00;;;;;;;;;;10450455;28;20056;-63
2023/08/28 19:08:10;;;;;;;2.80;1.17;;;;;;;;;;10450553;28;20376;-64
2023/08/28 19:13:10;;;;;;;4.38;1.65;;;;;;;;;;10450177;28;20392;-63
2023/08/28 19:18:11;;;;;;;2.47;0.93;;;;;;;;;;10450176;28;20029;-62
2023/08/28 19:23:11;;;;;;;3.15;1.10;;;;;;;;;;10449823;28;20044;-62
2023/08/28 19:28:12;;;;;;;1.40;0.90;;;;;;;;;;10450616;28;20021;-62
2023/08/28 19:33:13;;;;;;;2.70;1.08;;;;;;;;;;10450193;28;20503;-62
2023/08/28 19:38:13;;;;;;;1.40;0.98;;;;;;;;;;10449870;28;20025;-62
2023/08/28 19:43:15;;;;;;;2.80;0.90;;;;;;;;;;10450638;28;20025;-62
2023/08/28 19:48:15;;;;;;;1.60;1.08;;;;;;;;;;10449848;28;20527;-62
2023/08/28 19:53:16;;;;;;;2.10;1.10;;;;;;;;;;10454024;28;20029;-61
2023/08/28 19:58:16;;;;;;;3.95;1.20;;;;;;;;;;10457654;28;20035;-62
2023/08/28 20:03:17;;;;;;;2.42;0.90;;;;;;;;;;10457125;28;20021;-62
2023/08/28 20:08:18;;;;;;;3.25;1.05;;;;;;;;;;10457211;28;20025;-62
2023/08/28 20:13:19;;;;;;;2.50;1.17;;;;;;;;;;10456852;28;20044;-62
2023/08/28 20:18:19;;;;;;;2.85;0.98;;;;;;;;;;10456627;28;20025;-62
2023/08/28 20:23:20;;;;;;;2.60;1.20;;;;;;;;;;10456521;28;20435;-62
2023/08/28 20:28:20;;;;;;;1.98;1.30;;;;;;;;;;10456093;28;20499;-62
2023/08/28 20:33:21;;;;;;;2.15;1.20;;;;;;;;;;10455987;28;20031;-62
2023/08/28 20:38:24;;;;;;;6.50;1.40;;;;;;;;;;10455909;28;20025;-62
2023/08/28 20:43:24;;;;;;;6.00;1.40;;;;;;;;;;10456201;28;20049;-62
2023/08/28 20:48:25;;;;;;;2.67;1.40;;;;;;;;;;10455469;28;20469;-63
2023/08/28 20:53:30;;;;;;;2.95;1.15;;;;;;;;;;10455872;28;20383;-63
2023/08/28 20:58:32;;;;;;;1.65;0.88;;;;;;;;;;10455299;28;20104;-63
2023/08/28 21:03:32;;;;;;;2.70;1.30;;;;;;;;;;10454371;28;20028;-64
2023/08/28 21:08:33;;;;;;;1.92;1.00;;;;;;;;;;10454623;28;20388;-63
2023/08/28 21:13:33;;;;;;;1.90;1.15;;;;;;;;;;10454429;28;20240;-63
2023/08/28 21:18:34;;;;;;;2.65;1.00;;;;;;;;;;10454486;28;20041;-63
2023/08/28 21:23:35;;;;;;;2.25;1.20;;;;;;;;;;10454005;28;20032;-63
2023/08/28 21:28:36;;;;;;;1.63;1.10;;;;;;;;;;10453629;28;20036;-62
2023/08/28 21:33:37;;;;;;;1.80;1.15;;;;;;;;;;10453724;28;20032;-62
2023/08/28 21:38:38;;;;;;;2.28;1.00;;;;;;;;;;10453241;28;20033;-62
2023/08/28 21:43:39;;;;;;;2.50;1.05;;;;;;;;;;10452233;28;20017;-62
2023/08/28 21:48:39;;;;;;;1.45;1.00;;;;;;;;;;10452983;28;20415;-62
2023/08/28 21:53:40;;;;;;;3.13;1.10;;;;;;;;;;10452657;28;20029;-63
2023/08/28 21:58:41;;;;;;;12.75;1.50;;;;;;;;;;10452876;28;20032;-63
2023/08/28 22:03:42;;;;;;;4.57;1.50;;;;;;;;;;10452264;28;20032;-63
2023/08/28 22:08:42;;;;;;;4.68;1.48;;;;;;;;;;10452433;28;20032;-63
2023/08/28 22:13:43;;;;;;;5.20;1.90;;;;;;;;;;10451351;28;20460;-63
2023/08/28 22:18:43;;;;;;;6.18;2.08;;;;;;;;;;10451603;28;20049;-63
2023/08/28 22:23:44;;;;;;;7.07;2.03;;;;;;;;;;10451966;28;20029;-63
2023/08/28 22:28:45;;;;;;;10.82;2.03;;;;;;;;;;10451452;28;20021;-63
2023/08/28 22:33:45;;;;;;;13.23;1.92;;;;;;;;;;10451606;28;20437;-63
2023/08/28 22:38:46;;;;;;;5.40;1.65;;;;;;;;;;10451132;28;20045;-63
2023/08/28 22:43:46;;;;;;;4.32;2.10;;;;;;;;;;10451007;28;20032;-63
2023/08/28 22:48:48;;;;;;;10.10;1.65;;;;;;;;;;10450586;28;20033;-63
2023/08/28 22:53:48;;;;;;;4.45;1.67;;;;;;;;;;10450749;28;20053;-63
2023/08/28 22:58:49;;;;;;;9.10;1.58;;;;;;;;;;10450574;28;20033;-63
2023/08/28 23:03:49;;;;;;;8.45;1.80;;;;;;;;;;10450309;28;20025;-63
2023/08/28 23:08:50;;;;;;;6.57;1.67;;;;;;;;;;10450162;28;20095;-63
2023/08/28 23:13:51;;;;;;;3.00;1.33;;;;;;;;;;10450328;28;20423;-64
2023/08/28 23:18:51;;;;;;;4.30;1.52;;;;;;;;;;10449829;28;20056;-64
2023/08/28 23:23:52;;;;;;;15.70;1.40;;;;;;;;;;10450354;28;20045;-63
2023/08/28 23:28:52;;;;;;;9.77;1.70;;;;;;;;;;10457819;28;20033;-63
2023/08/28 23:33:54;;;;;;;7.70;1.38;;;;;;;;;;10458259;28;20033;-63
2023/08/28 23:38:54;;;;;;;3.40;1.40;;;;;;;;;;10458154;28;20075;-63
2023/08/28 23:43:55;;;;;;;5.65;1.33;;;;;;;;;;10456883;28;20032;-63
2023/08/28 23:48:55;;;;;;;3.47;1.50;;;;;;;;;;10457591;28;20029;-63
2023/08/28 23:53:56;;;;;;;3.38;1.30;;;;;;;;;;10457859;28;20044;-63
2023/08/28 23:58:57;;;;;;;5.60;1.58;;;;;;;;;;10457395;28;20029;-63
